createdAt,value
2023-04-18T00:00:57.204Z,25.23
2023-04-18T00:03:59.986Z,19.43
2023-04-18T00:07:06.673Z,21.73
2023-04-18T00:10:11.577Z,31.90
2023-04-18T00:13:14.320Z,27.17
2023-04-18T00:16:17.031Z,23.07
2023-04-18T00:19:20.168Z,26.23
2023-04-18T00:22:23.613Z,20.13
2023-04-18T00:25:27.811Z,22.07
2023-04-18T00:28:30.575Z,22.80
2023-04-18T00:31:33.313Z,24.50
2023-04-18T00:34:36.118Z,20.10
2023-04-18T00:37:38.787Z,20.93
2023-04-18T00:40:42.861Z,20.33
2023-04-18T00:43:45.564Z,21.63
2023-04-18T00:46:48.326Z,21.50
2023-04-18T00:49:51.532Z,24.13
2023-04-18T00:52:54.838Z,22.30
2023-04-18T00:55:58.967Z,24.83
2023-04-18T00:59:01.870Z,19.77
2023-04-18T01:02:05.402Z,18.97
2023-04-18T01:05:39.604Z,20.07
2023-04-18T01:08:43.716Z,17.77
2023-04-18T01:11:47.769Z,14.73
2023-04-18T01:14:50.652Z,16.83
2023-04-18T01:17:53.505Z,16.87
2023-04-18T01:20:57.080Z,18.00
2023-04-18T01:24:05.577Z,20.40
2023-04-18T01:27:13.340Z,21.17
2023-04-18T01:30:16.277Z,18.37
2023-04-18T01:33:18.912Z,18.57
2023-04-18T01:36:21.696Z,21.53
2023-04-18T01:39:24.369Z,22.10
2023-04-18T01:42:28.365Z,24.10
2023-04-18T01:45:33.669Z,21.87
2023-04-18T01:48:36.394Z,21.47
2023-04-18T01:51:39.866Z,19.97
2023-04-18T01:54:42.564Z,21.67
2023-04-18T01:57:46.559Z,20.33
2023-04-18T02:00:49.334Z,19.53
2023-04-18T02:03:52.071Z,21.03
2023-04-18T02:06:54.904Z,18.33
2023-04-18T02:09:57.594Z,20.57
2023-04-18T02:13:04.271Z,19.33
2023-04-18T02:16:14.059Z,20.10
2023-04-18T02:19:16.738Z,19.93
2023-04-18T02:22:19.643Z,18.53
2023-04-18T02:25:23.629Z,19.83
2023-04-18T02:28:27.654Z,18.67
2023-04-18T02:31:30.391Z,18.97
2023-04-18T02:34:33.778Z,17.93
2023-04-18T02:37:36.605Z,19.77
2023-04-18T02:40:39.245Z,19.40
2023-04-18T02:43:43.290Z,19.77
2023-04-18T02:46:45.983Z,24.33
2023-04-18T02:49:48.739Z,20.83
2023-04-18T02:52:51.427Z,21.47
2023-04-18T02:55:54.086Z,20.70
2023-04-18T02:58:58.068Z,20.67
2023-04-18T03:02:02.202Z,22.27
2023-04-18T03:05:05.317Z,21.23
2023-04-18T03:08:08.285Z,19.70
2023-04-18T03:11:10.934Z,23.17
2023-04-18T03:14:15.484Z,23.80
2023-04-18T03:21:40.075Z,18.47
2023-04-18T03:24:43.458Z,18.20
2023-04-18T03:27:46.140Z,24.27
2023-04-18T03:30:50.624Z,20.73
2023-04-18T03:33:53.362Z,19.07
2023-04-18T03:36:56.032Z,19.80
2023-04-18T03:39:58.680Z,19.37
2023-04-18T03:43:01.271Z,22.13
2023-04-18T03:46:06.336Z,22.87
2023-04-18T03:49:08.973Z,30.57
2023-04-18T03:52:11.642Z,28.13
2023-04-18T03:55:14.465Z,29.33
2023-04-18T03:58:18.024Z,22.90
2023-04-18T04:01:22.006Z,24.90
2023-04-18T04:04:25.396Z,22.27
2023-04-18T04:07:28.042Z,21.27
2023-04-18T04:10:31.212Z,25.83
2023-04-18T04:13:34.318Z,24.00
2023-04-18T04:16:38.480Z,24.43
2023-04-18T04:19:41.159Z,24.07
2023-04-18T04:22:43.860Z,26.63
2023-04-18T04:25:46.705Z,24.30
2023-04-18T04:28:50.318Z,26.30
2023-04-18T04:31:54.312Z,26.20
2023-04-18T04:34:57.296Z,24.97
2023-04-18T04:38:01.548Z,28.07
2023-04-18T04:41:04.185Z,29.33
2023-04-18T04:44:07.148Z,28.93
2023-04-18T04:47:11.174Z,24.37
2023-04-18T04:50:15.773Z,24.50
2023-04-18T04:53:18.487Z,26.57
2023-04-18T04:56:22.757Z,26.33
2023-04-18T04:59:25.943Z,28.10
2023-04-18T05:02:30.083Z,26.33
2023-04-18T05:05:32.839Z,29.17
2023-04-18T05:08:35.544Z,24.17
2023-04-18T05:11:38.166Z,19.90
2023-04-18T05:14:41.200Z,21.07
2023-04-18T05:17:45.398Z,22.30
2023-04-18T05:20:48.137Z,19.97
2023-04-18T05:23:51.390Z,19.00
2023-04-18T05:26:54.646Z,26.27
2023-04-18T05:29:57.361Z,28.80
2023-04-18T05:33:02.182Z,39.73
2023-04-18T05:36:05.576Z,20.40
2023-04-18T05:39:08.279Z,28.50
2023-04-18T05:42:10.945Z,20.70
2023-04-18T05:45:13.755Z,24.23
2023-04-18T05:48:17.782Z,23.57
2023-04-18T05:51:20.520Z,19.30
2023-04-18T05:54:23.185Z,19.67
2023-04-18T05:57:25.865Z,25.20
2023-04-18T06:00:28.860Z,20.73
2023-04-18T06:03:33.050Z,22.23
2023-04-18T06:06:36.219Z,23.77
2023-04-18T06:09:38.901Z,19.17
2023-04-18T06:12:41.632Z,17.40
2023-04-18T06:15:44.333Z,24.20
2023-04-18T06:18:48.383Z,19.53
2023-04-18T06:21:51.318Z,22.83
2023-04-18T06:24:55.436Z,23.43
2023-04-18T06:27:58.087Z,24.07
2023-04-18T06:31:00.770Z,20.60
2023-04-18T06:34:04.769Z,18.10
2023-04-18T06:37:07.763Z,19.63
2023-04-18T06:40:11.583Z,19.30
2023-04-18T06:43:14.279Z,20.67
2023-04-18T06:46:17.044Z,17.73
2023-04-18T06:49:25.200Z,21.77
2023-04-18T06:52:29.182Z,16.77
2023-04-18T06:55:31.929Z,22.00
2023-04-18T06:58:34.749Z,18.00
2023-04-18T07:01:41.364Z,19.37
2023-04-18T07:04:45.557Z,18.27
2023-04-18T07:07:48.291Z,17.13
2023-04-18T07:10:51.332Z,21.97
2023-04-18T07:13:54.212Z,17.60
2023-04-18T07:16:57.637Z,16.33
2023-04-18T07:20:01.915Z,17.50
2023-04-18T07:23:04.749Z,19.70
2023-04-18T07:26:09.601Z,15.93
2023-04-18T07:29:12.282Z,15.53
2023-04-18T07:32:22.352Z,17.43
2023-04-18T07:35:26.443Z,20.67
2023-04-18T07:38:29.245Z,18.00
2023-04-18T07:41:31.990Z,16.43
2023-04-18T07:44:36.384Z,16.87
2023-04-18T07:47:39.058Z,18.83
2023-04-18T07:50:48.776Z,16.93
2023-04-18T07:53:51.405Z,17.67
2023-04-18T07:56:54.041Z,20.20
2023-04-18T07:59:56.890Z,15.60
2023-04-18T08:02:59.825Z,18.47
2023-04-18T08:06:05.902Z,16.53
2023-04-18T08:09:09.102Z,17.00
2023-04-18T08:12:11.777Z,15.03
2023-04-18T08:15:17.485Z,15.23
2023-04-18T08:18:20.798Z,14.50
2023-04-18T08:21:24.798Z,17.30
2023-04-18T08:24:27.822Z,14.57
2023-04-18T08:27:31.364Z,12.37
2023-04-18T08:30:34.064Z,15.07
2023-04-18T08:33:37.121Z,13.40
2023-04-18T08:36:41.117Z,12.63
2023-04-18T08:39:44.832Z,13.10
2023-04-18T08:42:47.616Z,13.97
2023-04-18T08:45:50.721Z,15.90
2023-04-18T08:48:53.718Z,12.40
2023-04-18T08:51:59.626Z,13.20
2023-04-18T08:55:03.878Z,15.27
2023-04-18T08:58:06.880Z,20.80
2023-04-18T09:01:10.296Z,14.27
2023-04-18T09:04:14.117Z,19.70
2023-04-18T09:07:18.909Z,11.63
2023-04-18T09:10:29.930Z,21.73
2023-04-18T09:13:39.857Z,16.73
2023-04-18T09:16:47.952Z,14.07
2023-04-18T09:19:50.957Z,10.93
2023-04-18T09:22:57.770Z,22.60
2023-04-18T09:26:00.414Z,18.60
2023-04-18T09:29:03.307Z,9.93
2023-04-18T09:32:06.478Z,11.77
2023-04-18T09:35:09.708Z,9.63
2023-04-18T09:38:13.699Z,14.27
2023-04-18T09:41:19.945Z,9.70
2023-04-18T09:44:23.992Z,9.43
2023-04-18T09:47:27.764Z,9.10
2023-04-18T09:50:31.255Z,10.40
2023-04-18T09:53:40.489Z,7.23
2023-04-18T09:56:45.729Z,8.63
2023-04-18T09:59:52.617Z,10.00
2023-04-18T10:03:09.833Z,12.10
2023-04-18T10:06:13.000Z,16.53
2023-04-18T10:09:17.274Z,30.00
2023-04-18T10:12:20.590Z,12.30
2023-04-18T10:15:28.506Z,66.03
2023-04-18T10:18:31.205Z,11.97
2023-04-18T10:21:35.442Z,19.57
2023-04-18T10:24:49.960Z,31.50
2023-04-18T10:28:00.455Z,10.13
2023-04-18T10:31:05.548Z,8.30
2023-04-18T10:34:08.507Z,10.53
2023-04-18T10:37:12.786Z,11.67
2023-04-18T10:40:17.680Z,16.07
2023-04-18T10:43:20.704Z,12.63
2023-04-18T10:46:31.746Z,17.47
2023-04-18T10:49:37.629Z,25.10
2023-04-18T10:52:40.597Z,8.70
2023-04-18T10:55:50.685Z,21.20
2023-04-18T10:58:54.222Z,13.40
2023-04-18T11:01:58.449Z,6.60
2023-04-18T11:05:04.763Z,5.80
2023-04-18T11:08:23.501Z,8.23
2023-04-18T11:11:27.687Z,7.50
2023-04-18T11:14:40.486Z,6.40
2023-04-18T11:17:43.245Z,6.53
2023-04-18T11:20:49.327Z,7.30
2023-04-18T11:23:52.417Z,7.53
2023-04-18T11:26:57.017Z,9.57
2023-04-18T11:29:59.997Z,6.00
2023-04-18T11:33:06.481Z,6.63
2023-04-18T11:36:09.948Z,6.53
2023-04-18T11:39:12.923Z,8.17
2023-04-18T11:42:17.606Z,8.30
2023-04-18T11:45:20.848Z,7.30
2023-04-18T11:48:24.224Z,6.07
2023-04-18T11:51:35.723Z,9.40
2023-04-18T11:54:43.046Z,6.23
2023-04-18T11:57:55.198Z,6.17
2023-04-18T12:00:58.774Z,7.13
2023-04-18T12:04:03.401Z,8.13
2023-04-18T12:07:06.652Z,14.60
2023-04-18T12:10:11.214Z,8.77
2023-04-18T12:13:16.019Z,8.23
2023-04-18T12:16:18.790Z,8.10
2023-04-18T12:19:21.678Z,6.93
2023-04-18T12:22:42.961Z,7.30
2023-04-18T12:25:45.784Z,18.33
2023-04-18T12:28:51.392Z,14.40
2023-04-18T12:31:54.283Z,11.93
2023-04-18T12:34:57.522Z,9.80
2023-04-18T12:38:02.159Z,11.80
2023-04-18T12:41:05.509Z,20.30
2023-04-18T12:44:10.132Z,13.13
2023-04-18T12:47:13.012Z,14.80
2023-04-18T12:50:20.527Z,6.93
2023-04-18T12:53:23.204Z,10.50
2023-04-18T12:56:25.870Z,16.23
2023-04-18T12:59:30.189Z,12.03
2023-04-18T13:02:37.223Z,17.67
2023-04-18T13:05:40.136Z,16.27
2023-04-18T13:08:42.862Z,7.53
2023-04-18T13:11:49.512Z,7.47
2023-04-18T13:14:53.739Z,8.77
2023-04-18T13:17:57.179Z,8.63
2023-04-18T13:20:59.856Z,10.80
2023-04-18T13:24:03.131Z,7.73
2023-04-18T13:27:10.341Z,8.87
2023-04-18T13:30:14.740Z,7.33
2023-04-18T13:33:18.045Z,7.30
2023-04-18T13:36:21.190Z,6.77
2023-04-18T13:39:24.884Z,6.57
2023-04-18T13:42:27.764Z,7.17
2023-04-18T13:45:32.097Z,6.37
2023-04-18T13:48:34.878Z,6.70
2023-04-18T13:51:37.498Z,7.20
2023-04-18T13:54:41.335Z,4.83
2023-04-18T13:57:44.086Z,8.40
2023-04-18T14:00:48.070Z,6.17
2023-04-18T14:03:51.171Z,8.83
2023-04-18T14:06:54.015Z,8.77
2023-04-18T14:09:56.668Z,6.73
2023-04-18T14:12:59.314Z,5.83
2023-04-18T14:16:03.772Z,6.13
2023-04-18T14:19:06.725Z,5.87
2023-04-18T14:22:09.406Z,6.83
2023-04-18T14:25:14.320Z,7.60
2023-04-18T14:28:19.042Z,11.47
2023-04-18T14:31:23.139Z,6.73
2023-04-18T14:34:25.870Z,6.07
2023-04-18T14:37:28.740Z,5.67
2023-04-18T14:40:32.981Z,8.63
2023-04-18T14:43:35.820Z,8.87
2023-04-18T14:46:39.968Z,5.60
2023-04-18T14:49:42.798Z,6.13
2023-04-18T14:52:46.356Z,5.97
2023-04-18T14:55:49.065Z,7.50
2023-04-18T14:58:51.707Z,6.07
2023-04-18T15:01:56.219Z,5.83
2023-04-18T15:04:59.103Z,6.10
2023-04-18T15:08:02.055Z,6.50
2023-04-18T15:11:07.201Z,9.03
2023-04-18T15:14:10.674Z,7.13
2023-04-18T15:17:14.753Z,27.93
2023-04-18T15:20:17.559Z,10.27
2023-04-18T15:23:20.842Z,9.50
2023-04-18T15:26:24.776Z,16.10
2023-04-18T15:29:27.506Z,10.00
2023-04-18T15:32:31.581Z,8.03
2023-04-18T15:35:34.208Z,5.13
2023-04-18T15:38:36.936Z,6.67
2023-04-18T15:41:42.045Z,8.47
2023-04-18T15:44:44.808Z,7.03
2023-04-18T15:47:48.908Z,23.43
2023-04-18T15:50:52.368Z,10.17
2023-04-18T15:53:55.170Z,5.07
2023-04-18T15:56:58.216Z,6.13
2023-04-18T16:00:00.984Z,6.17
2023-04-18T16:03:05.695Z,6.83
2023-04-18T16:06:09.794Z,7.77
2023-04-18T16:09:12.513Z,7.23
2023-04-18T16:12:15.126Z,9.33
2023-04-18T16:15:18.016Z,7.63
2023-04-18T16:18:22.120Z,7.60
2023-04-18T16:21:25.867Z,8.73
2023-04-18T16:24:30.238Z,8.30
2023-04-18T16:27:33.467Z,6.60
2023-04-18T16:30:36.252Z,6.43
2023-04-18T16:33:40.250Z,7.20
2023-04-18T16:36:42.974Z,8.20
2023-04-18T16:39:45.974Z,9.00
2023-04-18T16:42:48.669Z,11.27
2023-04-18T16:45:51.408Z,7.23
2023-04-18T16:48:55.605Z,13.83
2023-04-18T16:51:58.402Z,8.93
2023-04-18T16:55:01.024Z,12.03
2023-04-18T16:58:04.023Z,9.47
2023-04-18T17:01:08.080Z,12.57
2023-04-18T17:04:12.646Z,10.07
2023-04-18T17:07:15.609Z,8.53
2023-04-18T17:10:18.699Z,12.93
2023-04-18T17:13:22.372Z,14.03
2023-04-18T17:16:25.246Z,12.03
2023-04-18T17:19:29.300Z,13.93
2023-04-18T17:22:32.290Z,12.60
2023-04-18T17:25:34.938Z,11.70
2023-04-18T17:28:37.958Z,14.87
2023-04-18T17:31:40.744Z,10.30
2023-04-18T17:34:44.737Z,13.80
2023-04-18T17:37:47.845Z,12.67
2023-04-18T17:40:59.357Z,12.47
2023-04-18T17:44:02.286Z,9.90
2023-04-18T17:47:05.470Z,12.07
2023-04-18T17:50:10.330Z,12.00
2023-04-18T17:53:13.135Z,14.13
2023-04-18T17:56:16.376Z,12.43
2023-04-18T17:59:19.115Z,12.90
2023-04-18T18:02:23.323Z,11.53
2023-04-18T18:05:27.748Z,15.33
2023-04-18T18:08:30.681Z,16.07
2023-04-18T18:11:33.634Z,17.40
2023-04-18T18:14:36.455Z,13.13
2023-04-18T18:17:39.178Z,14.37
2023-04-18T18:20:43.877Z,15.77
2023-04-18T18:23:46.597Z,13.43
2023-04-18T18:26:51.506Z,18.00
2023-04-18T18:29:54.453Z,14.07
2023-04-18T18:32:57.549Z,16.47
2023-04-18T18:36:01.824Z,15.90
2023-04-18T18:39:04.738Z,14.20
2023-04-18T18:42:08.065Z,13.50
2023-04-18T18:45:11.164Z,16.37
2023-04-18T18:48:15.337Z,21.33
2023-04-18T18:51:19.929Z,16.17
2023-04-18T18:54:22.863Z,16.60
2023-04-18T18:57:26.109Z,16.43
2023-04-18T19:00:28.849Z,16.37
2023-04-18T19:03:31.699Z,17.87
2023-04-18T19:06:36.412Z,16.07
2023-04-18T19:09:39.067Z,19.50
2023-04-18T19:12:42.846Z,18.60
2023-04-18T19:15:45.708Z,16.90
2023-04-18T19:18:50.445Z,15.53
2023-04-18T19:21:54.454Z,18.03
2023-04-18T19:24:57.295Z,20.00
2023-04-18T19:28:00.017Z,17.93
2023-04-18T19:31:03.429Z,15.97
2023-04-18T19:34:06.109Z,15.63
2023-04-18T19:37:10.127Z,16.33
2023-04-18T19:40:15.038Z,21.30
2023-04-18T19:43:18.054Z,18.37
2023-04-18T19:46:20.723Z,15.17
2023-04-18T19:49:23.414Z,14.43
2023-04-18T19:52:27.776Z,17.87
2023-04-18T19:55:31.588Z,16.03
2023-04-18T19:58:36.005Z,17.67
2023-04-18T20:01:38.789Z,16.67
2023-04-18T20:04:41.912Z,16.17
2023-04-18T20:07:46.356Z,15.50
2023-04-18T20:10:49.016Z,14.77
2023-04-18T20:13:52.297Z,14.23
2023-04-18T20:16:55.950Z,14.90
2023-04-18T20:19:59.650Z,14.53
2023-04-18T20:23:03.800Z,13.63
2023-04-18T20:26:06.596Z,13.53
2023-04-18T20:29:09.263Z,13.37
2023-04-18T20:32:12.380Z,16.73
2023-04-18T20:35:15.009Z,18.03
2023-04-18T20:38:20.115Z,14.33
2023-04-18T20:41:24.211Z,11.63
2023-04-18T20:44:28.057Z,13.37
2023-04-18T20:47:30.941Z,12.80
2023-04-18T20:50:33.616Z,14.40
2023-04-18T20:53:37.650Z,13.30
2023-04-18T20:56:40.608Z,12.63
2023-04-18T20:59:43.244Z,11.57
2023-04-18T21:02:46.118Z,11.03
2023-04-18T21:05:48.820Z,13.50
2023-04-18T21:08:53.083Z,8.43
2023-04-18T21:11:55.716Z,9.37
2023-04-18T21:14:58.380Z,8.90
2023-04-18T21:18:01.107Z,8.63
2023-04-18T21:21:03.836Z,8.07
2023-04-18T21:24:08.147Z,9.00
2023-04-18T21:27:11.396Z,8.03
2023-04-18T21:30:14.803Z,10.37
2023-04-18T21:33:17.541Z,8.77
2023-04-18T21:36:20.563Z,9.87
2023-04-18T21:39:24.704Z,9.50
2023-04-18T21:42:27.378Z,9.33
2023-04-18T21:45:30.097Z,9.00
2023-04-18T21:48:32.816Z,9.30
2023-04-18T21:51:35.452Z,9.10
2023-04-18T21:54:40.246Z,8.67
2023-04-18T21:57:42.992Z,8.83
2023-04-18T22:00:45.968Z,9.80
2023-04-18T22:03:48.828Z,8.33
2023-04-18T22:06:54.063Z,9.80
2023-04-18T22:09:59.709Z,9.03
2023-04-18T22:13:04.373Z,7.97
2023-04-18T22:16:08.348Z,7.93
2023-04-18T22:19:11.414Z,10.63
2023-04-18T22:22:14.063Z,9.53
2023-04-18T22:25:18.146Z,9.37
2023-04-18T22:28:22.803Z,8.40
2023-04-18T22:31:25.833Z,8.70
2023-04-18T22:34:28.535Z,8.63
2023-04-18T22:37:31.382Z,8.97
2023-04-18T22:40:37.921Z,9.70
2023-04-18T22:43:40.584Z,7.40
2023-04-18T22:46:44.814Z,10.70
2023-04-18T22:49:47.697Z,10.93
2023-04-18T22:52:51.102Z,8.83
2023-04-18T22:55:55.413Z,7.80
2023-04-18T22:58:58.164Z,7.70
2023-04-18T23:02:02.256Z,7.33
2023-04-18T23:05:06.008Z,6.73
2023-04-18T23:08:08.727Z,6.83
2023-04-18T23:11:12.750Z,10.70
2023-04-18T23:14:16.951Z,8.03
2023-04-18T23:17:19.765Z,8.67
2023-04-18T23:20:25.486Z,8.83
2023-04-18T23:23:28.236Z,8.13
2023-04-18T23:26:32.326Z,7.83
2023-04-18T23:29:37.680Z,7.57
2023-04-18T23:32:40.717Z,7.63
2023-04-18T23:35:43.516Z,7.27
2023-04-18T23:38:46.755Z,7.20
2023-04-18T23:41:51.411Z,6.57
2023-04-18T23:44:54.655Z,6.77
2023-04-18T23:47:57.385Z,7.20
2023-04-18T23:51:00.368Z,7.03
2023-04-18T23:54:03.698Z,6.90
2023-04-18T23:57:07.707Z,7.80
